sensor_id;sensor_type;location;lat;lon;timestamp;pressure;altitude;pressure_sealevel;temperature;humidity
16777;BME280;8505;49.456;8.164;2022-07-29T00:01:58;-20556.72;;;20.83;53.90
16777;BME280;8505;49.456;8.164;2022-07-29T00:04:25;-20556.72;;;20.83;54.08
16777;BME280;8505;49.456;8.164;2022-07-29T00:06:54;-20557.03;;;20.84;53.89
16777;BME280;8505;49.456;8.164;2022-07-29T00:09:22;-20554.00;;;20.74;54.88
16777;BME280;8505;49.456;8.164;2022-07-29T00:11:50;-20546.72;;;20.49;56.18
16777;BME280;8505;49.456;8.164;2022-07-29T00:14:18;-20545.94;;;20.47;56.66
16777;BME280;8505;49.456;8.164;2022-07-29T00:16:45;-20541.84;;;20.33;56.87
16777;BME280;8505;49.456;8.164;2022-07-29T00:19:13;-20542.16;;;20.34;57.04
16777;BME280;8505;49.456;8.164;2022-07-29T00:21:41;-20544.28;;;20.41;57.26
16777;BME280;8505;49.456;8.164;2022-07-29T00:24:10;-20540.78;;;20.30;58.11
16777;BME280;8505;49.456;8.164;2022-07-29T00:26:38;-20542.31;;;20.35;57.51
16777;BME280;8505;49.456;8.164;2022-07-29T00:29:06;-20542.47;;;20.35;56.78
16777;BME280;8505;49.456;8.164;2022-07-29T00:31:54;-20543.53;;;20.39;55.41
16777;BME280;8505;49.456;8.164;2022-07-29T00:34:21;-20547.00;;;20.50;55.04
16777;BME280;8505;49.456;8.164;2022-07-29T00:37:07;-20551.13;;;20.64;54.61
16777;BME280;8505;49.456;8.164;2022-07-29T00:39:36;-20553.09;;;20.71;53.84
16777;BME280;8505;49.456;8.164;2022-07-29T00:42:04;-20553.38;;;20.72;53.53
16777;BME280;8505;49.456;8.164;2022-07-29T00:44:36;-20551.25;;;20.65;54.19
16777;BME280;8505;49.456;8.164;2022-07-29T00:47:04;-20548.84;;;20.56;54.94
16777;BME280;8505;49.456;8.164;2022-07-29T00:49:33;-20549.44;;;20.58;54.50
16777;BME280;8505;49.456;8.164;2022-07-29T00:52:01;-20546.25;;;20.48;54.59
16777;BME280;8505;49.456;8.164;2022-07-29T00:54:30;-20539.72;;;20.26;55.38
16777;BME280;8505;49.456;8.164;2022-07-29T00:57:00;-20544.28;;;20.41;54.93
16777;BME280;8505;49.456;8.164;2022-07-29T00:59:28;-20543.97;;;20.40;55.18
16777;BME280;8505;49.456;8.164;2022-07-29T01:02:00;-20536.84;;;20.16;56.31
16777;BME280;8505;49.456;8.164;2022-07-29T01:04:29;-20537.91;;;20.20;55.86
16777;BME280;8505;49.456;8.164;2022-07-29T01:06:58;-20542.31;;;20.35;54.80
16777;BME280;8505;49.456;8.164;2022-07-29T01:09:27;-20543.97;;;20.40;53.83
16777;BME280;8505;49.456;8.164;2022-07-29T01:12:15;-20535.63;;;20.12;55.03
16777;BME280;8505;49.456;8.164;2022-07-29T01:14:44;-20540.19;;;20.28;54.86
16777;BME280;8505;49.456;8.164;2022-07-29T01:17:18;-20534.88;;;20.10;55.23
16777;BME280;8505;49.456;8.164;2022-07-29T01:19:53;-20531.69;;;19.99;55.98
16777;BME280;8505;49.456;8.164;2022-07-29T01:22:31;-20526.69;;;19.82;58.12
16777;BME280;8505;49.456;8.164;2022-07-29T01:25:17;-20517.41;;;19.52;60.78
16777;BME280;8505;49.456;8.164;2022-07-29T01:28:08;-20513.31;;;19.38;60.94
16777;BME280;8505;49.456;8.164;2022-07-29T01:30:44;-20510.28;;;19.28;62.00
16777;BME280;8505;49.456;8.164;2022-07-29T01:33:20;-20509.06;;;19.24;61.38
16777;BME280;8505;49.456;8.164;2022-07-29T01:36:13;-20513.91;;;19.40;60.85
16777;BME280;8505;49.456;8.164;2022-07-29T01:38:45;-20518.19;;;19.54;59.80
16777;BME280;8505;49.456;8.164;2022-07-29T01:41:17;-20518.19;;;19.54;59.77
16777;BME280;8505;49.456;8.164;2022-07-29T01:43:51;-20519.38;;;19.58;59.31
16777;BME280;8505;49.456;8.164;2022-07-29T01:46:26;-20516.97;;;19.50;60.07
16777;BME280;8505;49.456;8.164;2022-07-29T01:48:57;-20513.63;;;19.39;60.61
16777;BME280;8505;49.456;8.164;2022-07-29T01:51:32;-20511.03;;;19.30;61.17
16777;BME280;8505;49.456;8.164;2022-07-29T01:54:04;-20511.78;;;19.33;61.81
16777;BME280;8505;49.456;8.164;2022-07-29T01:56:35;-20503.13;;;19.04;64.00
16777;BME280;8505;49.456;8.164;2022-07-29T01:59:05;-20502.06;;;19.00;64.51
16777;BME280;8505;49.456;8.164;2022-07-29T02:01:39;-20504.34;;;19.08;64.15
16777;BME280;8505;49.456;8.164;2022-07-29T02:04:10;-20507.09;;;19.17;61.66
16777;BME280;8505;49.456;8.164;2022-07-29T02:06:57;-20506.16;;;19.14;61.26
16777;BME280;8505;49.456;8.164;2022-07-29T02:09:26;-20517.41;;;19.52;58.91
16777;BME280;8505;49.456;8.164;2022-07-29T02:11:56;-20516.66;;;19.49;58.69
16777;BME280;8505;49.456;8.164;2022-07-29T02:14:28;-20523.34;;;19.71;57.35
16777;BME280;8505;49.456;8.164;2022-07-29T02:17:00;-20523.78;;;19.73;57.51
16777;BME280;8505;49.456;8.164;2022-07-29T02:19:31;-20523.78;;;19.73;57.29
16777;BME280;8505;49.456;8.164;2022-07-29T02:22:00;-20525.91;;;19.80;57.01
16777;BME280;8505;49.456;8.164;2022-07-29T02:24:30;-20525.16;;;19.77;56.67
16777;BME280;8505;49.456;8.164;2022-07-29T02:26:58;-20521.22;;;19.64;57.34
16777;BME280;8505;49.456;8.164;2022-07-29T02:29:28;-20520.00;;;19.60;57.89
16777;BME280;8505;49.456;8.164;2022-07-29T02:32:00;-20509.66;;;19.26;60.20
16777;BME280;8505;49.456;8.164;2022-07-29T02:34:29;-20504.34;;;19.08;61.95
16777;BME280;8505;49.456;8.164;2022-07-29T02:36:58;-20500.72;;;18.96;62.26
16777;BME280;8505;49.456;8.164;2022-07-29T02:39:27;-20492.34;;;18.68;65.00
16777;BME280;8505;49.456;8.164;2022-07-29T02:42:01;-20492.19;;;18.67;64.97
16777;BME280;8505;49.456;8.164;2022-07-29T02:44:31;-20495.09;;;18.77;64.33
16777;BME280;8505;49.456;8.164;2022-07-29T02:47:07;-20483.84;;;18.39;66.94
16777;BME280;8505;49.456;8.164;2022-07-29T02:49:40;-20476.84;;;18.16;69.15
16777;BME280;8505;49.456;8.164;2022-07-29T02:52:16;-20471.69;;;17.99;70.98
16777;BME280;8505;49.456;8.164;2022-07-29T02:54:49;-20472.28;;;18.01;71.21
16777;BME280;8505;49.456;8.164;2022-07-29T02:57:22;-20472.13;;;18.00;70.96
16777;BME280;8505;49.456;8.164;2022-07-29T02:59:57;-20470.16;;;17.94;71.32
16777;BME280;8505;49.456;8.164;2022-07-29T03:02:28;-20474.25;;;18.08;70.90
16777;BME280;8505;49.456;8.164;2022-07-29T03:05:00;-20469.25;;;17.91;71.90
16777;BME280;8505;49.456;8.164;2022-07-29T03:07:29;-20469.53;;;17.92;72.22
16777;BME280;8505;49.456;8.164;2022-07-29T03:09:58;-20465.91;;;17.80;72.82
16777;BME280;8505;49.456;8.164;2022-07-29T03:12:28;-20462.72;;;17.69;74.02
16777;BME280;8505;49.456;8.164;2022-07-29T03:14:57;-20456.78;;;17.49;75.40
16777;BME280;8505;49.456;8.164;2022-07-29T03:17:28;-20454.03;;;17.40;76.35
16777;BME280;8505;49.456;8.164;2022-07-29T03:19:58;-20452.19;;;17.34;77.00
16777;BME280;8505;49.456;8.164;2022-07-29T03:22:27;-20453.56;;;17.39;76.71
16777;BME280;8505;49.456;8.164;2022-07-29T03:24:55;-20448.41;;;17.21;77.63
16777;BME280;8505;49.456;8.164;2022-07-29T03:27:22;-20448.56;;;17.22;78.03
16777;BME280;8505;49.456;8.164;2022-07-29T03:29:50;-20442.31;;;17.01;79.14
16777;BME280;8505;49.456;8.164;2022-07-29T03:32:18;-20439.72;;;16.92;79.96
16777;BME280;8505;49.456;8.164;2022-07-29T03:34:52;-20438.97;;;16.90;80.38
16777;BME280;8505;49.456;8.164;2022-07-29T03:37:20;-20437.28;;;16.84;80.58
16777;BME280;8505;49.456;8.164;2022-07-29T03:39:49;-20435.00;;;16.77;81.64
16777;BME280;8505;49.456;8.164;2022-07-29T03:42:19;-20433.63;;;16.72;82.42
16777;BME280;8505;49.456;8.164;2022-07-29T03:44:50;-20436.84;;;16.83;82.03
16777;BME280;8505;49.456;8.164;2022-07-29T03:47:22;-20435.78;;;16.79;81.62
16777;BME280;8505;49.456;8.164;2022-07-29T03:50:14;-20434.09;;;16.74;81.78
16777;BME280;8505;49.456;8.164;2022-07-29T03:52:42;-20435.78;;;16.79;81.41
16777;BME280;8505;49.456;8.164;2022-07-29T03:55:11;-20435.00;;;16.77;81.39
16777;BME280;8505;49.456;8.164;2022-07-29T03:57:39;-20432.44;;;16.68;82.23
16777;BME280;8505;49.456;8.164;2022-07-29T04:00:08;-20429.53;;;16.59;82.83
16777;BME280;8505;49.456;8.164;2022-07-29T04:02:37;-20429.38;;;16.58;83.27
16777;BME280;8505;49.456;8.164;2022-07-29T04:05:11;-20430.75;;;16.63;82.81
16777;BME280;8505;49.456;8.164;2022-07-29T04:07:43;-20434.25;;;16.74;82.76
16777;BME280;8505;49.456;8.164;2022-07-29T04:10:11;-20429.81;;;16.60;83.02
16777;BME280;8505;49.456;8.164;2022-07-29T04:12:39;-20429.53;;;16.59;83.35
16777;BME280;8505;49.456;8.164;2022-07-29T04:15:08;-20428.75;;;16.56;83.62
16777;BME280;8505;49.456;8.164;2022-07-29T04:17:36;-20424.50;;;16.42;84.26
16777;BME280;8505;49.456;8.164;2022-07-29T04:20:05;-20424.19;;;16.41;84.46
16777;BME280;8505;49.456;8.164;2022-07-29T04:22:32;-20425.13;;;16.44;84.26
16777;BME280;8505;49.456;8.164;2022-07-29T04:25:02;-20426.34;;;16.48;84.13
16777;BME280;8505;49.456;8.164;2022-07-29T04:27:30;-20428.47;;;16.55;83.61
16777;BME280;8505;49.456;8.164;2022-07-29T04:29:58;-20431.81;;;16.66;82.87
16777;BME280;8505;49.456;8.164;2022-07-29T04:32:26;-20430.91;;;16.63;82.77
16777;BME280;8505;49.456;8.164;2022-07-29T04:34:54;-20429.38;;;16.58;83.28
16777;BME280;8505;49.456;8.164;2022-07-29T04:37:21;-20432.13;;;16.67;82.69
16777;BME280;8505;49.456;8.164;2022-07-29T04:39:49;-20435.91;;;16.80;82.52
16777;BME280;8505;49.456;8.164;2022-07-29T04:42:18;-20433.34;;;16.71;83.01
16777;BME280;8505;49.456;8.164;2022-07-29T04:44:54;-20434.41;;;16.75;83.19
16777;BME280;8505;49.456;8.164;2022-07-29T04:47:22;-20438.06;;;16.87;82.28
16777;BME280;8505;49.456;8.164;2022-07-29T04:49:50;-20439.13;;;16.90;81.99
16777;BME280;8505;49.456;8.164;2022-07-29T04:52:18;-20440.94;;;16.97;81.45
16777;BME280;8505;49.456;8.164;2022-07-29T04:54:45;-20440.19;;;16.94;82.05
16777;BME280;8505;49.456;8.164;2022-07-29T04:57:13;-20443.53;;;17.05;81.14
16777;BME280;8505;49.456;8.164;2022-07-29T04:59:42;-20444.28;;;17.08;81.12
16777;BME280;8505;49.456;8.164;2022-07-29T05:02:11;-20443.22;;;17.04;81.24
16777;BME280;8505;49.456;8.164;2022-07-29T05:04:38;-20444.59;;;17.09;81.10
16777;BME280;8505;49.456;8.164;2022-07-29T05:07:06;-20442.78;;;17.03;81.13
16777;BME280;8505;49.456;8.164;2022-07-29T05:09:34;-20448.09;;;17.20;80.55
16777;BME280;8505;49.456;8.164;2022-07-29T05:12:02;-20449.63;;;17.25;79.86
16777;BME280;8505;49.456;8.164;2022-07-29T05:14:30;-20449.78;;;17.26;79.52
16777;BME280;8505;49.456;8.164;2022-07-29T05:17:00;-20453.13;;;17.37;79.00
16777;BME280;8505;49.456;8.164;2022-07-29T05:19:28;-20455.56;;;17.45;78.40
16777;BME280;8505;49.456;8.164;2022-07-29T05:21:56;-20460.72;;;17.62;77.85
16777;BME280;8505;49.456;8.164;2022-07-29T05:24:23;-20466.50;;;17.82;76.32
16777;BME280;8505;49.456;8.164;2022-07-29T05:26:51;-20472.28;;;18.01;75.12
16777;BME280;8505;49.456;8.164;2022-07-29T05:29:19;-20478.97;;;18.23;74.14
16777;BME280;8505;49.456;8.164;2022-07-29T05:32:08;-20488.69;;;18.56;71.87
16777;BME280;8505;49.456;8.164;2022-07-29T05:34:36;-20493.13;;;18.70;71.12
16777;BME280;8505;49.456;8.164;2022-07-29T05:37:17;-20497.66;;;18.86;69.82
16777;BME280;8505;49.456;8.164;2022-07-29T05:39:46;-20505.13;;;19.10;68.97
16777;BME280;8505;49.456;8.164;2022-07-29T05:42:23;-20506.78;;;19.16;67.97
16777;BME280;8505;49.456;8.164;2022-07-29T05:44:51;-20523.34;;;19.71;66.41
16777;BME280;8505;49.456;8.164;2022-07-29T05:47:20;-20525.47;;;19.78;65.17
16777;BME280;8505;49.456;8.164;2022-07-29T05:49:48;-20523.19;;;19.71;64.58
16777;BME280;8505;49.456;8.164;2022-07-29T05:52:17;-20527.28;;;19.84;63.35
16777;BME280;8505;49.456;8.164;2022-07-29T05:54:44;-20537.75;;;20.19;61.87
16777;BME280;8505;49.456;8.164;2022-07-29T05:57:15;-20552.16;;;20.68;59.65
16777;BME280;8505;49.456;8.164;2022-07-29T05:59:43;-20555.81;;;20.80;58.87
16777;BME280;8505;49.456;8.164;2022-07-29T06:02:11;-20584.16;;;21.75;55.67
16777;BME280;8505;49.456;8.164;2022-07-29T06:04:40;-20583.09;;;21.71;54.96
16777;BME280;8505;49.456;8.164;2022-07-29T06:07:08;-20578.56;;;21.56;54.67
16777;BME280;8505;49.456;8.164;2022-07-29T06:09:36;-20568.56;;;21.22;56.32
16777;BME280;8505;49.456;8.164;2022-07-29T06:12:04;-20574.78;;;21.43;55.49
16777;BME280;8505;49.456;8.164;2022-07-29T06:14:32;-20579.31;;;21.58;55.24
16777;BME280;8505;49.456;8.164;2022-07-29T06:16:59;-20589.16;;;21.91;54.01
16777;BME280;8505;49.456;8.164;2022-07-29T06:19:28;-20607.50;;;22.53;52.23
16777;BME280;8505;49.456;8.164;2022-07-29T06:21:57;-20617.03;;;22.85;51.23
16777;BME280;8505;49.456;8.164;2022-07-29T06:24:24;-20623.84;;;23.07;50.88
16777;BME280;8505;49.456;8.164;2022-07-29T06:26:52;-20618.25;;;22.89;51.11
16777;BME280;8505;49.456;8.164;2022-07-29T06:29:20;-20622.78;;;23.04;50.56
16777;BME280;8505;49.456;8.164;2022-07-29T06:31:48;-20616.13;;;22.82;50.95
16777;BME280;8505;49.456;8.164;2022-07-29T06:34:16;-20623.09;;;23.05;50.59
16777;BME280;8505;49.456;8.164;2022-07-29T06:36:44;-20626.13;;;23.15;50.13
16777;BME280;8505;49.456;8.164;2022-07-29T06:39:14;-20635.06;;;23.45;49.74
16777;BME280;8505;49.456;8.164;2022-07-29T06:41:46;-20640.97;;;23.65;48.64
16777;BME280;8505;49.456;8.164;2022-07-29T06:44:14;-20642.47;;;23.70;48.19
16777;BME280;8505;49.456;8.164;2022-07-29T06:46:43;-20643.69;;;23.74;48.51
16777;BME280;8505;49.456;8.164;2022-07-29T06:49:11;-20647.00;;;23.85;47.83
16777;BME280;8505;49.456;8.164;2022-07-29T06:51:40;-20648.97;;;23.92;48.40
16777;BME280;8505;49.456;8.164;2022-07-29T06:54:08;-20653.06;;;24.05;48.41
16777;BME280;8505;49.456;8.164;2022-07-29T06:56:37;-20635.06;;;23.45;48.06
16777;BME280;8505;49.456;8.164;2022-07-29T06:59:08;-20633.53;;;23.40;48.40
16777;BME280;8505;49.456;8.164;2022-07-29T07:01:37;-20635.66;;;23.47;48.53
16777;BME280;8505;49.456;8.164;2022-07-29T07:04:06;-20637.47;;;23.53;48.95
16777;BME280;8505;49.456;8.164;2022-07-29T07:06:35;-20648.22;;;23.89;49.00
16777;BME280;8505;49.456;8.164;2022-07-29T07:09:03;-20650.94;;;23.98;48.39
16777;BME280;8505;49.456;8.164;2022-07-29T07:11:31;-20666.38;;;24.50;47.26
16777;BME280;8505;49.456;8.164;2022-07-29T07:14:00;-20668.47;;;24.57;47.44
16777;BME280;8505;49.456;8.164;2022-07-29T07:16:30;-20675.88;;;24.82;46.33
16777;BME280;8505;49.456;8.164;2022-07-29T07:18:59;-20678.47;;;24.90;46.21
16777;BME280;8505;49.456;8.164;2022-07-29T07:21:26;-20684.06;;;25.09;46.16
16777;BME280;8505;49.456;8.164;2022-07-29T07:23:56;-20670.91;;;24.65;46.67
16777;BME280;8505;49.456;8.164;2022-07-29T07:26:23;-20671.66;;;24.68;47.32
16777;BME280;8505;49.456;8.164;2022-07-29T07:28:51;-20671.06;;;24.66;46.99
16777;BME280;8505;49.456;8.164;2022-07-29T07:31:20;-20678.16;;;24.89;46.93
16777;BME280;8505;49.456;8.164;2022-07-29T07:33:48;-20697.19;;;25.53;45.93
16777;BME280;8505;49.456;8.164;2022-07-29T07:36:15;-20689.19;;;25.26;47.50
16777;BME280;8505;49.456;8.164;2022-07-29T07:38:43;-20700.22;;;25.63;47.05
16777;BME280;8505;49.456;8.164;2022-07-29T07:41:11;-20721.03;;;26.33;44.66
16777;BME280;8505;49.456;8.164;2022-07-29T07:43:38;-20735.53;;;26.82;43.65
16777;BME280;8505;49.456;8.164;2022-07-29T07:46:06;-20734.00;;;26.77;43.56
16777;BME280;8505;49.456;8.164;2022-07-29T07:48:36;-20733.56;;;26.75;43.34
16777;BME280;8505;49.456;8.164;2022-07-29T07:51:03;-20712.00;;;26.03;44.76
16777;BME280;8505;49.456;8.164;2022-07-29T07:53:31;-20698.69;;;25.58;45.30
16777;BME280;8505;49.456;8.164;2022-07-29T07:55:59;-20690.53;;;25.31;46.27
16777;BME280;8505;49.456;8.164;2022-07-29T07:58:37;-20696.88;;;25.52;45.71
16777;BME280;8505;49.456;8.164;2022-07-29T08:01:06;-20707.75;;;25.89;44.76
16777;BME280;8505;49.456;8.164;2022-07-29T08:03:34;-20705.66;;;25.82;45.25
16777;BME280;8505;49.456;8.164;2022-07-29T08:06:03;-20722.69;;;26.39;44.67
16777;BME280;8505;49.456;8.164;2022-07-29T08:08:31;-20739.16;;;26.94;43.48
16777;BME280;8505;49.456;8.164;2022-07-29T08:11:00;-20752.88;;;27.40;42.00
16777;BME280;8505;49.456;8.164;2022-07-29T08:13:34;-20750.00;;;27.31;42.08
16777;BME280;8505;49.456;8.164;2022-07-29T08:16:02;-20773.34;;;28.09;40.94
16777;BME280;8505;49.456;8.164;2022-07-29T08:18:39;-20763.56;;;27.76;nan
16777;BME280;8505;49.456;8.164;2022-07-29T08:21:09;-20795.81;;;28.85;39.56
16777;BME280;8505;49.456;8.164;2022-07-29T08:23:41;-20778.34;;;28.26;40.50
16777;BME280;8505;49.456;8.164;2022-07-29T08:26:24;-20789.31;;;28.63;39.76
16777;BME280;8505;49.456;8.164;2022-07-29T08:28:52;-20779.53;;;28.30;40.65
16777;BME280;8505;49.456;8.164;2022-07-29T08:31:20;-20774.88;;;28.14;40.51
16777;BME280;8505;49.456;8.164;2022-07-29T08:33:48;-20771.25;;;28.02;40.81
16777;BME280;8505;49.456;8.164;2022-07-29T08:36:17;-20771.69;;;28.04;41.38
16777;BME280;8505;49.456;8.164;2022-07-29T08:38:47;-20769.91;;;27.98;41.28
16777;BME280;8505;49.456;8.164;2022-07-29T08:41:16;-20747.28;;;27.22;42.64
16777;BME280;8505;49.456;8.164;2022-07-29T08:43:45;-20748.81;;;27.27;43.27
16777;BME280;8505;49.456;8.164;2022-07-29T08:46:13;-20733.41;;;26.75;44.07
16777;BME280;8505;49.456;8.164;2022-07-29T08:48:41;-20739.75;;;26.96;43.57
16777;BME280;8505;49.456;8.164;2022-07-29T08:51:13;-20731.91;;;26.70;44.18
16777;BME280;8505;49.456;8.164;2022-07-29T08:53:45;-20747.59;;;27.23;43.11
16777;BME280;8505;49.456;8.164;2022-07-29T08:56:15;-20773.81;;;28.11;41.74
16777;BME280;8505;49.456;8.164;2022-07-29T08:58:45;-20798.97;;;28.96;40.59
16777;BME280;8505;49.456;8.164;2022-07-29T09:01:22;-20797.91;;;28.92;40.54
16777;BME280;8505;49.456;8.164;2022-07-29T09:04:05;-20813.41;;;29.44;39.54
16777;BME280;8505;49.456;8.164;2022-07-29T09:06:40;-20817.91;;;29.59;38.68
16777;BME280;8505;49.456;8.164;2022-07-29T09:09:11;-20803.31;;;29.10;39.73
16777;BME280;8505;49.456;8.164;2022-07-29T09:11:40;-20785.56;;;28.50;40.33
16777;BME280;8505;49.456;8.164;2022-07-29T09:14:11;-20793.69;;;28.78;41.08
16777;BME280;8505;49.456;8.164;2022-07-29T09:16:49;-20773.22;;;28.09;42.13
16777;BME280;8505;49.456;8.164;2022-07-29T09:19:28;-20780.75;;;28.34;42.17
16777;BME280;8505;49.456;8.164;2022-07-29T09:21:58;-20788.88;;;28.62;41.78
16777;BME280;8505;49.456;8.164;2022-07-29T09:24:48;-20795.19;;;28.83;41.13
16777;BME280;8505;49.456;8.164;2022-07-29T09:27:24;-20776.38;;;28.19;42.16
16777;BME280;8505;49.456;8.164;2022-07-29T09:29:58;-20770.50;;;28.00;42.38
16777;BME280;8505;49.456;8.164;2022-07-29T09:32:26;-20773.50;;;28.10;42.34
16777;BME280;8505;49.456;8.164;2022-07-29T09:35:18;-20774.56;;;28.13;42.57
16777;BME280;8505;49.456;8.164;2022-07-29T09:37:48;-20786.16;;;28.52;41.64
16777;BME280;8505;49.456;8.164;2022-07-29T09:40:18;-20773.66;;;28.10;42.08
16777;BME280;8505;49.456;8.164;2022-07-29T09:42:48;-20781.50;;;28.37;41.93
16777;BME280;8505;49.456;8.164;2022-07-29T09:45:27;-20776.06;;;28.18;41.85
16777;BME280;8505;49.456;8.164;2022-07-29T09:47:55;-20780.13;;;28.32;41.91
16777;BME280;8505;49.456;8.164;2022-07-29T09:50:37;-20790.38;;;28.67;41.43
16777;BME280;8505;49.456;8.164;2022-07-29T09:53:06;-20795.03;;;28.82;41.28
16777;BME280;8505;49.456;8.164;2022-07-29T09:55:47;-20806.34;;;29.20;40.18
16777;BME280;8505;49.456;8.164;2022-07-29T09:58:18;-20811.31;;;29.37;40.54
16777;BME280;8505;49.456;8.164;2022-07-29T10:00:47;-20812.94;;;29.43;39.51
16777;BME280;8505;49.456;8.164;2022-07-29T10:03:16;-20812.34;;;29.41;39.62
16777;BME280;8505;49.456;8.164;2022-07-29T10:05:45;-20816.13;;;29.53;39.47
16777;BME280;8505;49.456;8.164;2022-07-29T10:08:13;-20808.88;;;29.29;39.73
16777;BME280;8505;49.456;8.164;2022-07-29T10:11:09;-20821.38;;;29.71;39.20
16777;BME280;8505;49.456;8.164;2022-07-29T10:13:37;-20829.34;;;29.98;39.38
16777;BME280;8505;49.456;8.164;2022-07-29T10:16:06;-20823.78;;;29.79;39.27
16777;BME280;8505;49.456;8.164;2022-07-29T10:18:34;-20816.88;;;29.56;39.85
16777;BME280;8505;49.456;8.164;2022-07-29T10:21:01;-20817.47;;;29.58;40.11
16777;BME280;8505;49.456;8.164;2022-07-29T10:23:30;-20831.31;;;30.05;39.38
16777;BME280;8505;49.456;8.164;2022-07-29T10:26:15;-20840.31;;;30.35;38.30
16777;BME280;8505;49.456;8.164;2022-07-29T10:28:44;-20847.53;;;30.59;38.17
16777;BME280;8505;49.456;8.164;2022-07-29T10:31:17;-20842.44;;;30.42;38.60
16777;BME280;8505;49.456;8.164;2022-07-29T10:33:57;-20836.41;;;30.22;38.63
16777;BME280;8505;49.456;8.164;2022-07-29T10:36:41;-20818.66;;;29.62;39.92
16777;BME280;8505;49.456;8.164;2022-07-29T10:39:20;-20801.81;;;29.05;40.53
16777;BME280;8505;49.456;8.164;2022-07-29T10:42:17;-20823.63;;;29.79;39.23
16777;BME280;8505;49.456;8.164;2022-07-29T10:44:59;-20864.34;;;31.16;37.99
16777;BME280;8505;49.456;8.164;2022-07-29T10:47:27;-20900.38;;;32.38;35.85
16777;BME280;8505;49.456;8.164;2022-07-29T10:49:56;-20918.66;;;33.00;34.32
16777;BME280;8505;49.456;8.164;2022-07-29T10:52:54;-20929.16;;;33.35;33.91
16777;BME280;8505;49.456;8.164;2022-07-29T10:55:31;-20914.75;;;32.86;33.87
16777;BME280;8505;49.456;8.164;2022-07-29T10:58:15;-20885.53;;;31.88;35.80
16777;BME280;8505;49.456;8.164;2022-07-29T11:00:45;-20874.41;;;31.50;35.57
16777;BME280;8505;49.456;8.164;2022-07-29T11:03:43;-20840.31;;;30.35;37.99
16777;BME280;8505;49.456;8.164;2022-07-29T11:06:16;-20838.22;;;30.28;38.38
16777;BME280;8505;49.456;8.164;2022-07-29T11:09:14;-20840.31;;;30.35;38.14
16777;BME280;8505;49.456;8.164;2022-07-29T11:11:42;-20845.59;;;30.53;38.01
16777;BME280;8505;49.456;8.164;2022-07-29T11:14:58;-20856.84;;;30.91;36.93
16777;BME280;8505;49.456;8.164;2022-07-29T11:17:28;-20855.66;;;30.87;36.73
16777;BME280;8505;49.456;8.164;2022-07-29T11:20:36;-20882.53;;;31.77;35.21
16777;BME280;8505;49.456;8.164;2022-07-29T11:23:27;-20886.72;;;31.92;34.84
16777;BME280;8505;49.456;8.164;2022-07-29T11:26:17;-20868.72;;;31.31;35.83
16777;BME280;8505;49.456;8.164;2022-07-29T11:29:16;-20876.97;;;31.59;35.22
16777;BME280;8505;49.456;8.164;2022-07-29T11:31:50;-20866.75;;;31.24;35.83
16777;BME280;8505;49.456;8.164;2022-07-29T11:34:24;-20868.56;;;31.30;35.99
16777;BME280;8505;49.456;8.164;2022-07-29T11:37:17;-20845.88;;;30.54;36.37
16777;BME280;8505;49.456;8.164;2022-07-29T11:40:16;-20857.59;;;30.93;36.23
16777;BME280;8505;49.456;8.164;2022-07-29T11:42:47;-20866.16;;;31.22;35.38
16777;BME280;8505;49.456;8.164;2022-07-29T11:45:45;-20846.47;;;30.56;35.98
16777;BME280;8505;49.456;8.164;2022-07-29T11:48:18;-20848.59;;;30.63;35.23
16777;BME280;8505;49.456;8.164;2022-07-29T11:50:58;-20850.25;;;30.68;35.20
16777;BME280;8505;49.456;8.164;2022-07-29T11:53:26;-20866.16;;;31.22;34.39
16777;BME280;8505;49.456;8.164;2022-07-29T11:55:59;-20869.47;;;31.33;34.03
16777;BME280;8505;49.456;8.164;2022-07-29T11:58:29;-20869.75;;;31.34;34.25
16777;BME280;8505;49.456;8.164;2022-07-29T12:00:57;-20865.84;;;31.21;33.57
16777;BME280;8505;49.456;8.164;2022-07-29T12:03:32;-20858.03;;;30.95;33.78
16777;BME280;8505;49.456;8.164;2022-07-29T12:06:03;-20863.75;;;31.14;33.76
16777;BME280;8505;49.456;8.164;2022-07-29T12:08:40;-20868.41;;;31.30;32.86
16777;BME280;8505;49.456;8.164;2022-07-29T12:11:16;-20858.78;;;30.97;34.19
16777;BME280;8505;49.456;8.164;2022-07-29T12:13:47;-20860.44;;;31.03;34.37
16777;BME280;8505;49.456;8.164;2022-07-29T12:16:16;-20863.00;;;31.12;34.47
16777;BME280;8505;49.456;8.164;2022-07-29T12:18:57;-20848.44;;;30.62;34.60
16777;BME280;8505;49.456;8.164;2022-07-29T12:21:26;-20854.28;;;30.82;33.41
16777;BME280;8505;49.456;8.164;2022-07-29T12:23:55;-20842.13;;;30.41;34.69
16777;BME280;8505;49.456;8.164;2022-07-29T12:26:34;-20851.28;;;30.72;33.70
16777;BME280;8505;49.456;8.164;2022-07-29T12:29:02;-20848.75;;;30.63;33.59
16777;BME280;8505;49.456;8.164;2022-07-29T12:31:46;-20843.47;;;30.46;34.21
16777;BME280;8505;49.456;8.164;2022-07-29T12:34:15;-20833.25;;;30.11;34.26
16777;BME280;8505;49.456;8.164;2022-07-29T12:36:43;-20840.63;;;30.36;34.49
16777;BME280;8505;49.456;8.164;2022-07-29T12:39:12;-20832.81;;;30.10;34.63
16777;BME280;8505;49.456;8.164;2022-07-29T12:41:39;-20824.97;;;29.83;35.02
16777;BME280;8505;49.456;8.164;2022-07-29T12:44:07;-20827.38;;;29.91;34.94
16777;BME280;8505;49.456;8.164;2022-07-29T12:46:35;-20842.56;;;30.43;34.30
16777;BME280;8505;49.456;8.164;2022-07-29T12:49:05;-20864.81;;;31.18;32.94
16777;BME280;8505;49.456;8.164;2022-07-29T12:51:35;-20870.66;;;31.37;32.47
16777;BME280;8505;49.456;8.164;2022-07-29T12:54:06;-20890.16;;;32.03;32.28
16777;BME280;8505;49.456;8.164;2022-07-29T12:56:36;-20887.16;;;31.93;31.54
16777;BME280;8505;49.456;8.164;2022-07-29T12:59:14;-20871.56;;;31.40;32.03
16777;BME280;8505;49.456;8.164;2022-07-29T13:01:43;-20873.50;;;31.47;32.05
16777;BME280;8505;49.456;8.164;2022-07-29T13:04:23;-20883.88;;;31.82;31.75
16777;BME280;8505;49.456;8.164;2022-07-29T13:06:59;-20879.66;;;31.68;32.16
16777;BME280;8505;49.456;8.164;2022-07-29T13:09:41;-20868.56;;;31.30;32.27
16777;BME280;8505;49.456;8.164;2022-07-29T13:12:10;-20860.91;;;31.04;32.46
16777;BME280;8505;49.456;8.164;2022-07-29T13:14:40;-20856.25;;;30.89;32.29
16777;BME280;8505;49.456;8.164;2022-07-29T13:17:10;-20854.28;;;30.82;32.68
16777;BME280;8505;49.456;8.164;2022-07-29T13:19:39;-20860.75;;;31.04;32.95
16777;BME280;8505;49.456;8.164;2022-07-29T13:22:09;-20852.34;;;30.76;33.70
16777;BME280;8505;49.456;8.164;2022-07-29T13:24:47;-20857.75;;;30.94;33.58
16777;BME280;8505;49.456;8.164;2022-07-29T13:27:15;-20864.34;;;31.16;32.71